Time;durP1;ratioP1;P1;durP2;ratioP2;P2;SDS_P1;SDS_P2;PMS_P1;PMS_P2;Temp;Humidity;BMP_temperature;BMP_pressure;BME280_temperature;BME280_humidity;BME280_pressure;Samples;Min_cycle;Max_cycle;Signal;HPM_P1;HPM_P2
2024/01/16 00:01:52;;;;;;;7.78;5.18;;;;;;;2.56;50.73;98563.72;7765318;32;40945;-79
2024/01/16 00:06:08;;;;;;;7.12;4.80;;;;;;;2.33;51.38;98586.28;7766713;32;37497;-79
2024/01/16 00:10:24;;;;;;;8.48;5.55;;;;;;;2.28;51.75;98582.69;7767955;32;36872;-79
2024/01/16 00:14:40;;;;;;;8.82;4.87;;;;;;;2.69;50.82;98591.31;7793882;32;39322;-79
2024/01/16 00:18:57;;;;;;;6.80;5.00;;;;;;;2.13;52.48;98586.78;7793664;32;39997;-79
2024/01/16 00:23:13;;;;;;;7.60;5.20;;;;;;;2.40;51.70;98580.72;7793346;32;38702;-79
2024/01/16 00:27:29;;;;;;;6.07;4.57;;;;;;;2.30;52.33;98585.97;7793594;32;37979;-79
2024/01/16 00:31:45;;;;;;;8.90;5.15;;;;;;;2.36;51.88;98590.34;7793609;32;40005;-79
2024/01/16 00:36:02;;;;;;;7.12;4.35;;;;;;;1.87;53.87;98607.88;7793509;32;40002;-79
2024/01/16 00:40:18;;;;;;;5.78;4.47;;;;;;;1.60;55.48;98625.69;7790149;32;37865;-79
2024/01/16 00:44:34;;;;;;;4.53;3.83;;;;;;;1.72;55.20;98634.50;7766505;32;37683;-80
2024/01/16 00:48:51;;;;;;;5.82;4.18;;;;;;;1.33;56.58;98653.16;7766269;32;40134;-79
2024/01/16 00:53:07;;;;;;;4.10;3.78;;;;;;;1.45;56.48;98656.59;7766201;32;39926;-79
2024/01/16 00:57:23;;;;;;;5.05;3.90;;;;;;;1.31;56.74;98657.94;7765959;32;37799;-79
2024/01/16 01:01:40;;;;;;;5.28;4.10;;;;;;;1.10;57.62;98665.59;7778455;32;37861;-79
2024/01/16 01:05:56;;;;;;;6.28;4.60;;;;;;;1.53;56.26;98678.75;7784105;32;40111;-79
2024/01/16 01:10:13;;;;;;;5.00;4.22;;;;;;;1.64;56.05;98676.03;7766022;32;39934;-79
2024/01/16 01:14:29;;;;;;;5.37;4.10;;;;;;;1.16;57.86;98688.00;7765714;32;37854;-79
2024/01/16 01:18:46;;;;;;;6.03;4.35;;;;;;;1.54;56.55;98699.22;7765848;32;37892;-79
2024/01/16 01:23:02;;;;;;;5.95;4.37;;;;;;;1.71;55.88;98692.00;7765817;32;39036;-79
2024/01/16 01:27:18;;;;;;;4.72;4.12;;;;;;;2.18;54.50;98697.13;7765742;32;39752;-79
2024/01/16 01:31:35;;;;;;;4.60;3.92;;;;;;;1.87;55.17;98707.34;7765699;32;37788;-79
2024/01/16 01:35:51;;;;;;;5.05;4.20;;;;;;;2.33;53.47;98710.00;7765708;32;37166;-79
2024/01/16 01:40:08;;;;;;;10.63;5.00;;;;;;;2.63;52.73;98712.34;7766051;32;39335;-79
2024/01/16 01:44:25;;;;;;;4.25;3.85;;;;;;;2.10;54.07;98716.34;7765563;32;39619;-79
2024/01/16 01:48:42;;;;;;;4.00;3.62;;;;;;;2.54;52.88;98715.72;7765365;32;38511;-79
2024/01/16 01:52:58;;;;;;;6.87;4.25;;;;;;;2.56;52.83;98716.28;7788905;32;37061;-79
2024/01/16 01:57:14;;;;;;;4.30;3.90;;;;;;;2.68;52.29;98718.88;7819929;32;39503;-80
2024/01/16 02:01:31;;;;;;;4.62;3.80;;;;;;;2.76;51.97;98721.13;7819821;32;40133;-79
2024/01/16 02:05:48;;;;;;;5.07;3.95;;;;;;;2.72;52.21;98728.09;7819759;32;37869;-79
2024/01/16 02:10:04;;;;;;;5.05;4.45;;;;;;;1.74;54.45;98731.81;7805982;32;37640;-79
2024/01/16 02:14:21;;;;;;;5.45;4.40;;;;;;;2.47;52.93;98732.03;7805677;32;40171;-79
2024/01/16 02:18:37;;;;;;;4.60;3.78;;;;;;;2.21;53.47;98745.03;7765157;32;40056;-79
2024/01/16 02:22:56;;;;;;;5.03;4.07;;;;;;;2.70;52.19;98740.97;7764153;32;38559;-79
2024/01/16 02:27:12;;;;;;;5.87;4.53;;;;;;;2.78;52.26;98751.34;7765338;32;36234;-79
2024/01/16 02:31:29;;;;;;;5.28;4.20;;;;;;;2.89;51.88;98758.47;7765081;32;39460;-79
2024/01/16 02:35:45;;;;;;;6.28;4.50;;;;;;;2.79;52.16;98758.34;7765118;32;40024;-79
2024/01/16 02:40:05;;;;;;;5.87;3.97;;;;;;;2.58;52.48;98760.69;7764761;32;38505;-79
2024/01/16 02:44:22;;;;;;;6.80;4.18;;;;;;;2.90;51.50;98768.19;7764571;32;36852;-79
2024/01/16 02:48:39;;;;;;;5.30;3.80;;;;;;;2.79;52.03;98767.25;7764830;32;39775;-79
2024/01/16 02:52:55;;;;;;;5.07;4.18;;;;;;;3.05;51.29;98769.47;7764706;32;39983;-79
2024/01/16 02:57:11;;;;;;;5.32;4.47;;;;;;;2.87;51.84;98768.69;7794221;32;37861;-79
2024/01/16 03:01:27;;;;;;;5.35;4.00;;;;;;;2.70;52.25;98766.00;7816544;32;37058;-79
2024/01/16 03:05:43;;;;;;;9.18;4.57;;;;;;;2.98;51.47;98770.50;7819018;32;39264;-79
2024/01/16 03:10:00;;;;;;;6.30;4.40;;;;;;;2.59;52.20;98775.00;7818841;32;40650;-80
2024/01/16 03:14:16;;;;;;;5.93;4.43;;;;;;;1.95;53.56;98781.41;7818611;32;38352;-79
2024/01/16 03:18:33;;;;;;;6.55;4.62;;;;;;;2.31;52.13;98771.31;7818624;32;37348;-79
2024/01/16 03:22:49;;;;;;;5.75;4.20;;;;;;;2.40;52.34;98777.09;7818669;32;39372;-79
2024/01/16 03:27:05;;;;;;;5.30;4.47;;;;;;;2.60;51.05;98780.13;7818476;32;40772;-79
2024/01/16 03:31:22;;;;;;;6.32;4.70;;;;;;;1.75;52.72;98803.31;7818268;32;37778;-79
2024/01/16 03:35:38;;;;;;;6.60;4.50;;;;;;;1.82;52.09;98805.88;7805497;32;37740;-80
2024/01/16 03:39:54;;;;;;;7.43;4.68;;;;;;;1.48;52.61;98822.66;7821649;32;39081;-79
2024/01/16 03:44:11;;;;;;;3.65;3.30;;;;;;;1.44;52.58;98836.78;7787452;32;40803;-79
2024/01/16 03:48:27;;;;;;;7.25;4.75;;;;;;;1.93;51.12;98833.75;7765784;32;37838;-79
2024/01/16 03:52:44;;;;;;;4.72;4.28;;;;;;;1.34;52.13;98841.94;7766959;32;37176;-79
2024/01/16 03:57:00;;;;;;;5.87;4.12;;;;;;;2.12;50.77;98827.16;7766804;32;39821;-79
2024/01/16 04:01:16;;;;;;;5.85;4.47;;;;;;;1.70;51.79;98843.53;7766940;32;39747;-79
2024/01/16 04:05:33;;;;;;;4.65;4.05;;;;;;;1.19;52.18;98862.03;7766851;32;37914;-79
2024/01/16 04:09:49;;;;;;;4.75;4.15;;;;;;;1.58;52.07;98858.84;7766753;32;37062;-79
2024/01/16 04:14:06;;;;;;;7.03;4.85;;;;;;;1.00;52.79;98880.13;7792375;32;39259;-79
2024/01/16 04:18:22;;;;;;;4.93;4.20;;;;;;;0.96;53.35;98878.13;7793655;32;40616;-79
2024/01/16 04:22:38;;;;;;;4.75;4.32;;;;;;;1.34;52.50;98885.72;7793500;32;37771;-79
2024/01/16 04:26:55;;;;;;;6.43;4.57;;;;;;;0.78;53.50;98876.31;7793828;32;37962;-79
2024/01/16 04:31:12;;;;;;;6.45;4.20;;;;;;;1.24;52.57;98886.31;7793625;32;40061;-78
2024/01/16 04:35:28;;;;;;;6.85;4.82;;;;;;;1.35;51.86;98892.75;7791792;32;39725;-79
2024/01/16 04:39:44;;;;;;;6.78;5.03;;;;;;;0.74;53.54;98909.00;7793357;32;38408;-79
2024/01/16 04:44:00;;;;;;;5.70;4.40;;;;;;;0.93;52.94;98911.59;7779863;32;38169;-79
2024/01/16 04:48:16;;;;;;;7.12;4.78;;;;;;;1.44;51.71;98912.81;7793057;32;39362;-79
2024/01/16 04:52:33;;;;;;;7.20;4.87;;;;;;;1.19;52.33;98914.91;7793425;32;40116;-78
2024/01/16 04:56:49;;;;;;;5.93;4.60;;;;;;;1.19;52.69;98925.63;7793252;32;37746;-79
2024/01/16 05:01:05;;;;;;;7.47;5.05;;;;;;;1.07;52.82;98929.13;7793336;32;37040;-79
2024/01/16 05:05:22;;;;;;;7.85;5.22;;;;;;;0.71;53.71;98941.66;7793285;32;40138;-79
2024/01/16 05:09:44;;;;;;;6.78;4.30;;;;;;;0.88;53.64;98946.34;7793173;32;39618;-79
2024/01/16 05:14:00;;;;;;;5.35;4.07;;;;;;;1.41;52.48;98950.88;7793220;32;38659;-79
2024/01/16 05:18:16;;;;;;;6.25;4.78;;;;;;;1.01;52.57;98961.44;7778930;32;37787;-78
2024/01/16 05:22:33;;;;;;;6.45;4.65;;;;;;;1.12;52.78;98966.84;7792752;32;39935;-78
2024/01/16 05:26:49;;;;;;;7.03;5.25;;;;;;;0.96;53.25;98974.75;7793002;32;40021;-78
2024/01/16 05:31:05;;;;;;;6.68;4.93;;;;;;;0.97;52.95;98976.34;7768543;32;37782;-79
2024/01/16 05:35:22;;;;;;;6.10;4.72;;;;;;;0.65;53.43;98974.72;7765690;32;37248;-77
2024/01/16 05:39:40;;;;;;;9.68;5.45;;;;;;;0.68;54.72;98982.34;7765705;32;39433;-78
2024/01/16 05:43:57;;;;;;;7.15;5.53;;;;;;;0.77;53.10;98985.53;7765620;32;40034;-79
2024/01/16 05:48:13;;;;;;;15.43;4.60;;;;;;;1.16;52.04;98993.25;7765569;32;37882;-79
2024/01/16 05:52:29;;;;;;;6.53;4.68;;;;;;;1.17;52.29;98995.69;7765525;32;37155;-78
2024/01/16 05:56:46;;;;;;;8.48;6.03;;;;;;;1.07;52.28;98998.94;7765353;32;40151;-79
2024/01/16 06:01:02;;;;;;;7.93;5.95;;;;;;;1.08;52.80;99011.28;7763367;32;40553;-79
2024/01/16 06:05:18;;;;;;;5.80;5.18;;;;;;;1.11;52.24;99018.91;7765190;32;37824;-80
2024/01/16 06:09:44;;;;;;;7.72;4.50;;;;;;;1.66;50.31;99023.22;7765285;32;37506;-79
2024/01/16 06:14:00;;;;;;;8.35;5.25;;;;;;;1.03;51.56;99021.91;7767087;32;39310;-79
2024/01/16 06:18:16;;;;;;;5.40;4.60;;;;;;;1.71;50.14;99030.59;7765339;32;39757;-79
2024/01/16 06:22:32;;;;;;;5.22;4.00;;;;;;;1.46;49.65;99033.47;7813578;32;38761;-80
2024/01/16 06:26:49;;;;;;;7.10;4.72;;;;;;;1.07;50.36;99038.38;7819676;32;37165;-80
2024/01/16 06:31:05;;;;;;;6.18;4.43;;;;;;;0.99;49.82;99052.94;7819191;32;40279;-79
2024/01/16 06:35:23;;;;;;;9.32;4.55;;;;;;;0.33;52.09;99062.63;7787600;32;40049;-80
2024/01/16 06:39:39;;;;;;;6.53;4.47;;;;;;;1.03;50.32;99070.22;7791945;32;37800;-79
2024/01/16 06:43:55;;;;;;;6.20;4.65;;;;;;;0.85;50.31;99076.44;7792005;32;37912;-78
2024/01/16 06:48:12;;;;;;;5.45;4.50;;;;;;;0.50;50.95;99084.28;7791873;32;40263;-79
2024/01/16 06:52:28;;;;;;;7.75;5.07;;;;;;;1.02;49.65;99091.91;7791973;32;39762;-79
2024/01/16 06:56:45;;;;;;;12.50;4.70;;;;;;;0.89;50.56;99104.47;7791661;32;37855;-80
2024/01/16 07:01:02;;;;;;;5.97;4.57;;;;;;;1.17;49.14;99107.63;7791678;32;37191;-79
2024/01/16 07:05:18;;;;;;;5.05;4.53;;;;;;;0.90;50.37;99111.47;7791629;32;39025;-79
2024/01/16 07:09:35;;;;;;;5.90;4.80;;;;;;;0.74;50.44;99112.91;7791212;32;40827;-78
2024/01/16 07:13:51;;;;;;;7.60;4.68;;;;;;;1.21;49.44;99114.19;7791500;32;38626;-79
2024/01/16 07:18:07;;;;;;;7.35;5.12;;;;;;;1.21;50.02;99114.19;7790703;32;37006;-78
2024/01/16 07:22:23;;;;;;;8.88;4.72;;;;;;;1.40;49.71;99115.78;7791154;32;39276;-78
2024/01/16 07:26:41;;;;;;;7.55;5.30;;;;;;;1.38;49.97;99122.44;7791206;32;40001;-78
2024/01/16 07:30:57;;;;;;;4.65;3.95;;;;;;;2.10;48.27;99119.66;7790554;32;38516;-80
2024/01/16 07:35:14;;;;;;;5.87;4.65;;;;;;;1.98;47.18;99121.53;7790836;32;37367;-80
2024/01/16 07:39:30;;;;;;;4.97;4.10;;;;;;;1.56;48.99;99126.94;7790942;32;39487;-80
2024/01/16 07:43:46;;;;;;;6.07;4.45;;;;;;;0.85;49.80;99135.50;7780734;32;39664;-78
2024/01/16 07:48:05;;;;;;;7.55;4.80;;;;;;;1.03;49.72;99148.06;7777381;32;36961;-79
2024/01/16 07:52:21;;;;;;;9.57;5.35;;;;;;;0.80;49.42;99153.31;7767354;32;37039;-79
2024/01/16 07:56:37;;;;;;;5.35;4.45;;;;;;;1.08;49.31;99156.25;7763294;32;40054;-79
2024/01/16 08:00:54;;;;;;;7.32;4.75;;;;;;;0.89;49.82;99163.50;7761934;32;40821;-79
2024/01/16 08:05:10;;;;;;;5.72;4.57;;;;;;;1.06;49.25;99171.78;7764354;32;37491;-78
2024/01/16 08:09:27;;;;;;;7.32;4.87;;;;;;;0.65;49.74;99178.63;7790201;32;37095;-69
2024/01/16 08:13:43;;;;;;;5.82;4.30;;;;;;;0.90;49.34;99183.94;7766232;32;39651;-69
2024/01/16 08:18:00;;;;;;;4.65;3.62;;;;;;;1.39;48.37;99185.84;7762659;32;39995;-79
2024/01/16 08:22:16;;;;;;;10.32;4.82;;;;;;;1.48;48.23;99188.00;7764082;32;37636;-78
2024/01/16 08:26:33;;;;;;;4.32;3.92;;;;;;;1.42;47.71;99188.91;7766654;32;37206;-79
2024/01/16 08:30:49;;;;;;;5.47;3.97;;;;;;;1.22;47.51;99199.88;7766502;32;39520;-77
2024/01/16 08:35:06;;;;;;;4.72;4.20;;;;;;;1.41;47.04;99207.94;7766407;32;39938;-77
2024/01/16 08:39:24;;;;;;;10.32;5.50;;;;;;;1.34;46.86;99213.38;7766300;32;37538;-79
2024/01/16 08:43:40;;;;;;;8.77;4.97;;;;;;;1.43;47.18;99212.03;7766280;32;37780;-78
2024/01/16 08:47:56;;;;;;;5.55;3.90;;;;;;;1.59;46.64;99231.28;7766395;32;40011;-79
2024/01/16 08:52:13;;;;;;;11.55;6.60;;;;;;;1.59;45.69;99226.72;7764932;32;40817;-78
2024/01/16 08:56:29;;;;;;;6.00;3.92;;;;;;;1.58;46.25;99229.63;7777467;32;37916;-79
2024/01/16 09:00:45;;;;;;;12.15;5.70;;;;;;;1.73;45.01;99238.09;7780070;32;37375;-79
2024/01/16 09:05:01;;;;;;;18.17;8.05;;;;;;;1.45;46.02;99242.19;7780138;32;39352;-78
2024/01/16 09:09:18;;;;;;;4.10;3.28;;;;;;;1.38;46.41;99243.28;7778879;32;40908;-79
2024/01/16 09:13:34;;;;;;;4.57;4.12;;;;;;;1.65;44.55;99249.16;7780021;32;37628;-78
2024/01/16 09:17:51;;;;;;;4.78;3.65;;;;;;;1.87;45.12;99249.50;7777434;32;37254;-79
2024/01/16 09:22:07;;;;;;;4.03;3.62;;;;;;;2.11;44.28;99269.22;7776739;32;40230;-78
2024/01/16 09:26:24;;;;;;;13.95;3.25;;;;;;;2.34;43.71;99262.25;7778614;32;39993;-79
2024/01/16 09:30:43;;;;;;;7.12;4.35;;;;;;;2.36;43.10;99258.31;7778151;32;38374;-77
2024/01/16 09:35:04;;;;;;;3.90;3.12;;;;;;;2.24;43.92;99277.09;7779234;32;36975;-78
2024/01/16 09:39:20;;;;;;;4.20;3.80;;;;;;;2.20;43.86;99270.50;7789709;32;39030;-77
2024/01/16 09:43:37;;;;;;;4.78;3.53;;;;;;;2.35;43.49;99280.84;7765188;32;40017;-78
2024/01/16 09:47:53;;;;;;;5.85;4.05;;;;;;;1.98;44.20;99280.16;7814871;32;38624;-79
2024/01/16 09:52:10;;;;;;;4.90;3.90;;;;;;;2.26;43.90;99284.94;7806261;32;38552;-79
2024/01/16 09:56:28;;;;;;;4.53;3.75;;;;;;;2.24;44.41;99274.41;7819996;32;39832;-79
2024/01/16 10:00:44;;;;;;;6.37;4.28;;;;;;;2.46;43.24;99267.66;7786051;32;40161;-79
2024/01/16 10:05:00;;;;;;;5.70;4.20;;;;;;;2.03;43.50;99274.91;7765265;32;38679;-78
2024/01/16 10:09:17;;;;;;;11.98;4.30;;;;;;;1.84;43.89;99272.25;7765396;32;37192;-78
2024/01/16 10:13:34;;;;;;;4.78;3.62;;;;;;;3.01;42.06;99267.34;7765268;32;40079;-78
2024/01/16 10:17:50;;;;;;;6.12;4.00;;;;;;;2.93;42.12;99265.00;7764112;32;39998;-78
2024/01/16 10:22:07;;;;;;;6.10;4.12;;;;;;;2.73;42.62;99265.38;7784965;32;183923;-76
2024/01/16 10:26:23;;;;;;;7.20;4.15;;;;;;;2.94;42.25;99266.66;7765085;32;37303;-79
2024/01/16 10:30:39;;;;;;;5.72;4.15;;;;;;;3.35;41.73;99262.97;7767167;32;39272;-78
2024/01/16 10:35:10;;;;;;;6.20;4.20;;;;;;;3.26;41.57;99259.03;7775817;32;40833;-78
2024/01/16 10:39:28;;;;;;;6.75;4.35;;;;;;;3.31;41.73;99269.91;7778177;32;37834;-78
2024/01/16 10:44:06;;;;;;;8.32;4.95;;;;;;;3.23;41.78;99267.56;7770787;32;37869;-78
2024/01/16 10:48:23;;;;;;;13.88;4.40;;;;;;;3.47;41.10;99275.63;7764742;32;40341;-78
2024/01/16 10:52:48;;;;;;;8.57;4.32;;;;;;;3.90;40.33;99260.84;7764762;32;39914;-78
2024/01/16 10:57:05;;;;;;;10.10;4.12;;;;;;;4.16;39.78;99263.97;7763678;32;37943;-78
2024/01/16 11:01:21;;;;;;;9.70;4.35;;;;;;;3.72;40.13;99253.72;7763378;32;37076;-79
2024/01/16 11:05:39;;;;;;;10.93;4.28;;;;;;;4.66;39.36;99247.84;7764408;32;40182;-78
2024/01/16 11:09:56;;;;;;;6.20;3.53;;;;;;;4.15;39.97;99249.66;7762011;32;40591;-79
2024/01/16 11:14:16;;;;;;;4.75;3.22;;;;;;;4.09;39.35;99237.97;7762098;32;37514;-78
2024/01/16 11:18:34;;;;;;;3.53;2.83;;;;;;;4.12;39.98;99242.06;7764193;32;38023;-79
2024/01/16 11:22:54;;;;;;;7.03;3.67;;;;;;;4.33;38.56;99243.25;7764127;32;39356;-78
2024/01/16 11:27:22;;;;;;;4.07;3.20;;;;;;;3.79;39.79;99234.72;7764270;32;40895;-78
2024/01/16 11:31:38;;;;;;;4.43;3.37;;;;;;;3.59;39.94;99230.56;7762969;32;38037;-78
2024/01/16 11:35:54;;;;;;;5.95;2.90;;;;;;;3.20;39.74;99244.59;7764029;32;37643;-78
2024/01/16 11:40:20;;;;;;;5.00;3.60;;;;;;;3.22;40.52;99248.94;7763725;32;39408;-78
2024/01/16 11:44:41;;;;;;;4.10;3.33;;;;;;;3.76;39.99;99242.22;7763613;32;40866;-78
2024/01/16 11:49:03;;;;;;;5.00;3.10;;;;;;;3.84;39.05;99251.81;7763471;32;37791;-78
2024/01/16 11:53:39;;;;;;;3.58;2.75;;;;;;;3.93;39.30;99252.22;7763499;32;37313;-78
2024/01/16 11:58:17;;;;;;;3.72;3.17;;;;;;;4.30;38.28;99255.34;7765380;32;39359;-78
2024/01/16 12:02:53;;;;;;;6.30;3.30;;;;;;;4.18;38.89;99237.59;7766750;32;39849;-79
2024/01/16 12:07:10;;;;;;;3.08;2.50;;;;;;;4.23;39.19;99248.47;7765637;32;37970;-78
2024/01/16 12:11:27;;;;;;;5.68;3.37;;;;;;;4.40;39.65;99233.09;7766531;32;37119;-79
2024/01/16 12:16:06;;;;;;;2.72;2.47;;;;;;;4.47;38.46;99232.94;7766763;32;40081;-79
2024/01/16 12:20:23;;;;;;;3.08;2.75;;;;;;;4.86;37.88;99230.28;7774176;32;40548;-79
2024/01/16 12:24:40;;;;;;;3.60;3.10;;;;;;;5.53;36.87;99221.16;7778372;32;37979;-78
2024/01/16 12:28:57;;;;;;;4.55;2.65;;;;;;;5.06;35.86;99214.38;7772829;32;37027;-79
2024/01/16 12:33:16;;;;;;;5.90;3.22;;;;;;;5.12;35.34;99220.66;7779621;32;40158;-78
2024/01/16 12:37:33;;;;;;;4.72;3.05;;;;;;;5.01;35.27;99229.69;7778414;32;39629;-78
2024/01/16 12:41:49;;;;;;;8.00;2.90;;;;;;;5.29;36.73;99228.72;7777652;32;37826;-78
2024/01/16 12:46:06;;;;;;;8.82;3.37;;;;;;;5.56;35.93;99226.06;7778337;32;37177;-78
2024/01/16 12:50:24;;;;;;;4.12;2.78;;;;;;;6.25;33.97;99224.66;7779195;32;39407;-78
2024/01/16 12:54:41;;;;;;;4.35;2.65;;;;;;;6.61;33.37;99214.13;7778820;32;39653;-79
2024/01/16 12:59:08;;;;;;;6.45;2.80;;;;;;;7.43;32.23;99214.56;7778568;32;37951;-78
2024/01/16 13:03:27;;;;;;;4.60;2.50;;;;;;;7.40;31.78;99217.00;7778354;32;37041;-78
2024/01/16 13:07:46;;;;;;;4.60;2.72;;;;;;;6.93;31.25;99226.78;7778698;32;39444;-79
2024/01/16 13:12:02;;;;;;;6.50;2.67;;;;;;;6.96;31.67;99227.06;7778515;32;39597;-78
2024/01/16 13:16:19;;;;;;;5.12;3.37;;;;;;;6.31;32.85;99236.34;7778090;32;37887;-78
2024/01/16 13:20:38;;;;;;;4.72;3.08;;;;;;;6.80;31.91;99243.53;7778964;32;36877;-78
2024/01/16 13:24:55;;;;;;;6.68;3.12;;;;;;;6.24;32.62;99238.44;7777778;32;39024;-79
2024/01/16 13:29:23;;;;;;;8.25;3.33;;;;;;;6.21;32.63;99239.78;7777794;32;40958;-78
2024/01/16 13:33:40;;;;;;;6.22;3.10;;;;;;;6.47;32.46;99248.13;7778034;32;38645;-78
2024/01/16 13:37:56;;;;;;;6.85;3.90;;;;;;;6.38;32.69;99245.06;7778877;32;36762;-78
2024/01/16 13:42:12;;;;;;;6.65;3.17;;;;;;;5.97;33.43;99250.91;7778534;32;38978;-78
2024/01/16 13:46:28;;;;;;;7.05;3.60;;;;;;;6.52;32.75;99248.16;7777985;32;39966;-79
2024/01/16 13:51:04;;;;;;;7.12;3.90;;;;;;;6.67;33.00;99250.19;7771972;32;38168;-78
2024/01/16 13:55:21;;;;;;;8.32;3.92;;;;;;;5.73;33.19;99252.25;7777034;32;37123;-78
2024/01/16 13:59:38;;;;;;;4.82;2.95;;;;;;;5.95;33.07;99253.03;7777325;32;40028;-78
2024/01/16 14:03:54;;;;;;;4.50;2.85;;;;;;;5.25;34.16;99271.66;7778330;32;40116;-78
2024/01/16 14:08:12;;;;;;;3.72;2.70;;;;;;;5.35;34.35;99264.75;7778058;32;37889;-78
2024/01/16 14:12:29;;;;;;;5.57;2.62;;;;;;;4.77;36.35;99278.50;7777813;32;36190;-78
2024/01/16 14:16:49;;;;;;;6.80;2.80;;;;;;;4.45;37.18;99289.03;7778643;32;40040;-78
2024/01/16 14:21:16;;;;;;;9.57;2.70;;;;;;;4.81;35.40;99273.44;7776150;32;40170;-78
2024/01/16 14:25:32;;;;;;;5.37;2.83;;;;;;;5.93;34.07;99273.28;7777562;32;37887;-78
2024/01/16 14:29:49;;;;;;;5.15;2.40;;;;;;;6.68;31.19;99277.00;7778273;32;36811;-78
2024/01/16 14:34:05;;;;;;;6.57;3.28;;;;;;;7.30;29.69;99272.03;7777058;32;40027;-78
2024/01/16 14:38:22;;;;;;;4.43;2.22;;;;;;;8.13;29.12;99267.72;7776600;32;39706;-78
2024/01/16 14:42:43;;;;;;;8.80;2.92;;;;;;;8.61;28.37;99271.06;7778246;32;36462;-79
2024/01/16 14:47:00;;;;;;;4.25;2.58;;;;;;;7.85;29.87;99277.97;7777981;32;37097;-78
2024/01/16 14:51:17;;;;;;;3.37;2.40;;;;;;;6.71;31.92;99287.34;7776962;32;40067;-78
2024/01/16 14:55:33;;;;;;;5.57;2.67;;;;;;;5.90;32.65;99280.03;7777407;32;39925;-78
2024/01/16 14:59:49;;;;;;;4.25;2.72;;;;;;;5.23;33.78;99281.91;7777612;32;39327;-78
2024/01/16 15:04:06;;;;;;;48.75;17.42;;;;;;;5.70;32.20;99290.59;7776557;32;37161;-78
2024/01/16 15:08:22;;;;;;;41.63;17.33;;;;;;;4.98;34.67;99286.94;7770000;32;39437;-78
2024/01/16 15:12:39;;;;;;;11.80;6.03;;;;;;;5.31;33.94;99287.94;7764373;32;40592;-78
2024/01/16 15:16:55;;;;;;;9.85;6.28;;;;;;;4.40;36.02;99305.97;7764286;32;37938;-78
2024/01/16 15:21:12;;;;;;;6.37;4.72;;;;;;;4.54;36.65;99308.37;7764324;32;37208;-79
2024/01/16 15:25:28;;;;;;;13.82;7.12;;;;;;;4.78;36.56;99309.84;7763944;32;39450;-77
2024/01/16 15:29:44;;;;;;;37.25;13.20;;;;;;;4.38;37.32;99321.59;7764871;32;39641;-79
2024/01/16 15:34:01;;;;;;;19.62;9.45;;;;;;;4.44;37.13;99325.22;7772717;32;37659;-78
2024/01/16 15:38:18;;;;;;;17.02;8.38;;;;;;;4.45;36.52;99327.66;7772795;32;37878;-78
2024/01/16 15:42:38;;;;;;;14.23;5.40;;;;;;;4.35;36.42;99316.69;7772692;32;39043;-78
2024/01/16 15:46:56;;;;;;;9.90;4.75;;;;;;;4.48;36.06;99304.75;7772581;32;39930;-78
2024/01/16 15:51:13;;;;;;;13.20;5.90;;;;;;;4.63;35.68;99318.50;7772387;32;37948;-78
2024/01/16 15:55:29;;;;;;;24.83;10.15;;;;;;;4.65;35.27;99331.78;7772392;32;37145;-78
2024/01/16 15:59:45;;;;;;;22.02;11.95;;;;;;;4.26;35.83;99345.09;7772246;32;39270;-79
2024/01/16 16:04:02;;;;;;;19.65;8.85;;;;;;;4.02;35.60;99358.69;7772087;32;40862;-78
2024/01/16 16:08:18;;;;;;;29.33;10.85;;;;;;;3.51;37.00;99355.75;7771856;32;38710;-78
2024/01/16 16:12:34;;;;;;;24.12;9.55;;;;;;;3.79;37.14;99356.88;7771898;32;37975;-78
2024/01/16 16:16:51;;;;;;;21.02;8.55;;;;;;;3.86;36.73;99351.34;7771895;32;39544;-78
2024/01/16 16:21:08;;;;;;;11.10;4.68;;;;;;;3.92;37.47;99336.91;7771562;32;40865;-78
2024/01/16 16:25:24;;;;;;;11.23;5.75;;;;;;;4.14;37.50;99334.38;7771413;32;39144;-78
2024/01/16 16:29:40;;;;;;;10.68;6.00;;;;;;;4.01;36.86;99348.16;7771718;32;37136;-78
2024/01/16 16:34:02;;;;;;;9.32;5.03;;;;;;;3.88;37.32;99366.25;7771447;32;39472;-78
2024/01/16 16:38:18;;;;;;;14.38;7.07;;;;;;;4.04;36.65;99371.94;7771397;32;39716;-78
2024/01/16 16:42:35;;;;;;;17.00;8.77;;;;;;;3.89;36.65;99370.56;7768573;32;37973;-78
2024/01/16 16:46:51;;;;;;;9.43;5.45;;;;;;;3.88;37.98;99376.19;7760901;32;37806;-79
2024/01/16 16:51:15;;;;;;;42.53;26.17;;;;;;;3.99;38.26;99385.34;7765677;32;40135;-78
2024/01/16 16:55:31;;;;;;;16.00;9.27;;;;;;;3.97;37.46;99385.56;7765521;32;39875;-78
2024/01/16 16:59:47;;;;;;;15.57;7.28;;;;;;;3.94;37.46;99386.84;7765703;32;37888;-78
2024/01/16 17:04:04;;;;;;;14.43;7.25;;;;;;;3.90;37.76;99403.78;7765823;32;37201;-79
2024/01/16 17:08:21;;;;;;;9.80;6.03;;;;;;;3.64;38.00;99395.12;7765371;32;39397;-78
2024/01/16 17:12:38;;;;;;;13.68;6.25;;;;;;;3.44;38.42;99397.34;7766115;32;39653;-78
2024/01/16 17:16:55;;;;;;;13.07;6.80;;;;;;;3.08;38.68;99409.97;7765005;32;37510;-77
2024/01/16 17:21:13;;;;;;;9.95;5.32;;;;;;;3.23;39.08;99413.03;7764428;32;37168;-78
2024/01/16 17:25:30;;;;;;;10.52;5.32;;;;;;;3.15;38.74;99421.47;7765218;32;38247;-79
2024/01/16 17:29:47;;;;;;;9.25;5.57;;;;;;;3.53;37.99;99422.88;7765397;32;39859;-79
2024/01/16 17:34:03;;;;;;;6.45;4.20;;;;;;;3.50;38.45;99407.19;7765278;32;38688;-79
2024/01/16 17:38:21;;;;;;;8.38;4.90;;;;;;;3.32;38.29;99408.94;7764981;32;37910;-79
2024/01/16 17:42:40;;;;;;;8.75;4.72;;;;;;;3.11;38.12;99426.50;7765260;32;39733;-79
2024/01/16 17:46:56;;;;;;;8.63;4.22;;;;;;;3.22;38.12;99422.16;7765029;32;39823;-79
2024/01/16 17:51:13;;;;;;;10.98;4.87;;;;;;;3.55;37.41;99423.47;7765187;32;38622;-79
2024/01/16 17:55:33;;;;;;;10.13;4.62;;;;;;;3.42;37.97;99424.53;7764138;32;37862;-79
2024/01/16 17:59:49;;;;;;;9.88;5.10;;;;;;;3.60;37.96;99418.19;7764805;32;40098;-79
2024/01/16 18:04:08;;;;;;;8.30;5.22;;;;;;;3.21;37.95;99409.75;7765128;32;40909;-79
2024/01/16 18:08:24;;;;;;;7.82;4.87;;;;;;;3.03;38.88;99424.13;7764589;32;37930;-79
2024/01/16 18:12:41;;;;;;;8.82;4.93;;;;;;;3.11;38.47;99420.28;7770508;32;37134;-79
2024/01/16 18:16:58;;;;;;;6.15;3.37;;;;;;;3.05;37.92;99405.84;7772327;32;40067;-79
2024/01/16 18:21:14;;;;;;;7.57;4.00;;;;;;;2.86;38.53;99418.56;7776917;32;40620;-78
2024/01/16 18:25:31;;;;;;;7.70;4.87;;;;;;;3.09;38.40;99419.72;7781977;32;37523;-80
2024/01/16 18:29:47;;;;;;;13.75;5.00;;;;;;;3.12;38.81;99416.53;7789255;32;37051;-78
2024/01/16 18:34:09;;;;;;;8.30;4.68;;;;;;;3.00;39.09;99416.50;7773281;32;39408;-78
2024/01/16 18:38:27;;;;;;;9.30;4.93;;;;;;;2.89;39.96;99406.53;7772441;32;39748;-78
2024/01/16 18:42:43;;;;;;;8.35;4.55;;;;;;;2.61;40.87;99400.72;7774989;32;36885;-78
2024/01/16 18:47:00;;;;;;;8.95;4.90;;;;;;;2.48;41.87;99408.16;7784052;32;37145;-78
2024/01/16 18:51:17;;;;;;;7.40;4.72;;;;;;;2.51;41.61;99397.75;7776856;32;40270;-78
2024/01/16 18:55:34;;;;;;;8.25;5.03;;;;;;;2.21;42.31;99405.84;7791894;32;39890;-78
2024/01/16 18:59:51;;;;;;;6.60;4.32;;;;;;;2.52;41.29;99404.81;7791600;32;38621;-78
2024/01/16 19:04:12;;;;;;;15.25;7.07;;;;;;;2.38;41.21;99409.53;7791440;32;37311;-78
2024/01/16 19:08:28;;;;;;;14.48;6.43;;;;;;;2.41;40.31;99402.88;7791436;32;39376;-78
2024/01/16 19:12:48;;;;;;;17.92;6.80;;;;;;;2.65;39.67;99402.97;7786558;32;40849;-80
2024/01/16 19:17:04;;;;;;;16.52;8.52;;;;;;;2.63;39.79;99408.56;7765295;32;37907;-80
2024/01/16 19:21:21;;;;;;;26.08;11.95;;;;;;;2.54;40.24;99405.38;7791108;32;37360;-80
2024/01/16 19:25:37;;;;;;;17.70;8.93;;;;;;;2.47;40.45;99410.03;7784538;32;40150;-79
2024/01/16 19:29:53;;;;;;;12.25;6.85;;;;;;;2.35;41.07;99406.50;7787242;32;40055;-79
2024/01/16 19:34:11;;;;;;;13.32;6.62;;;;;;;2.53;41.20;99413.69;7790960;32;37836;-80
2024/01/16 19:38:28;;;;;;;9.60;5.25;;;;;;;2.01;42.51;99416.81;7789848;32;36397;-80
2024/01/16 19:42:44;;;;;;;10.88;6.57;;;;;;;1.85;42.57;99402.12;7781432;32;39284;-80
2024/01/16 19:47:01;;;;;;;16.52;7.28;;;;;;;1.71;42.96;99405.97;7783609;32;40003;-79
2024/01/16 19:51:17;;;;;;;13.98;7.62;;;;;;;1.57;43.21;99399.94;7790486;32;38876;-80
2024/01/16 19:55:36;;;;;;;23.98;11.07;;;;;;;1.36;43.85;99404.66;7790471;32;37111;-81
2024/01/16 19:59:52;;;;;;;13.55;7.82;;;;;;;1.50;43.34;99400.00;7790318;32;40022;-81
2024/01/16 20:04:08;;;;;;;11.32;6.10;;;;;;;1.84;42.26;99397.78;7769389;32;40584;-79
2024/01/16 20:08:25;;;;;;;11.68;6.55;;;;;;;1.61;42.32;99395.78;7813347;32;38461;-81
2024/01/16 20:12:48;;;;;;;11.60;6.50;;;;;;;1.68;42.54;99396.53;7793961;32;37284;-81
2024/01/16 20:17:05;;;;;;;11.00;6.70;;;;;;;1.56;43.16;99395.62;7781298;32;39127;-81
2024/01/16 20:21:27;;;;;;;9.82;6.30;;;;;;;1.58;43.70;99393.53;7793571;32;40790;-80